Time;durP1;ratioP1;P1;durP2;ratioP2;P2;SDS_P1;SDS_P2;PMS_P1;PMS_P2;Temp;Humidity;BMP_temperature;BMP_pressure;BME280_temperature;BME280_humidity;BME280_pressure;Samples;Min_cycle;Max_cycle;Signal;HPM_P1;HPM_P2
2022/10/22 00:01:42;;;;;;;0.17;0.17;;;;;;;15.15;73.51;100872.38;5040918;28;20036;-78
2022/10/22 00:04:08;;;;;;;0.10;0.10;;;;;;;15.17;73.48;100870.47;5040630;28;20026;-77
2022/10/22 00:06:34;;;;;;;0.10;0.10;;;;;;;15.22;73.60;100872.13;5055817;28;20037;-78
2022/10/22 00:09:00;;;;;;;0.10;0.10;;;;;;;15.23;73.80;100868.50;5052283;28;20034;-77
2022/10/22 00:11:26;;;;;;;0.10;0.10;;;;;;;15.23;74.00;100876.50;5040836;28;20025;-78
2022/10/22 00:13:52;;;;;;;2.08;0.90;;;;;;;15.22;73.85;100877.47;5036790;28;20037;-77
2022/10/22 00:16:19;;;;;;;0.10;0.10;;;;;;;15.18;74.11;100874.03;5041165;28;20409;-77
2022/10/22 00:18:45;;;;;;;0.10;0.10;;;;;;;15.16;74.26;100867.88;5045227;28;20056;-78
2022/10/22 00:21:11;;;;;;;0.10;0.10;;;;;;;15.16;74.67;100873.22;5043270;28;20121;-77
2022/10/22 00:23:41;;;;;;;0.10;0.10;;;;;;;15.15;74.96;100872.38;5040965;28;20543;-77
2022/10/22 00:26:07;;;;;;;0.10;0.10;;;;;;;15.15;75.15;100880.38;5042541;28;20072;-78
2022/10/22 00:28:33;;;;;;;0.10;0.10;;;;;;;15.17;75.05;100881.16;5042357;28;20033;-78
2022/10/22 00:31:00;;;;;;;0.10;0.10;;;;;;;15.15;75.85;100877.69;5038841;28;20029;-77
2022/10/22 00:33:28;;;;;;;0.10;0.10;;;;;;;15.18;75.85;100876.72;5043214;28;21759;-77
2022/10/22 00:35:54;;;;;;;0.10;0.10;;;;;;;15.24;75.72;100878.25;5042691;28;20381;-78
2022/10/22 00:38:20;;;;;;;0.10;0.10;;;;;;;15.26;75.92;100879.06;5043149;28;20025;-78
2022/10/22 00:40:47;;;;;;;0.10;0.10;;;;;;;15.27;75.70;100872.81;5044138;28;20068;-77
2022/10/22 00:43:16;;;;;;;0.47;0.47;;;;;;;15.30;76.16;100881.56;5037630;28;20393;-78
2022/10/22 00:45:42;;;;;;;0.10;0.10;;;;;;;15.32;75.97;100881.50;5044688;28;20030;-77
2022/10/22 00:50:56;;;;;;;0.10;0.10;;;;;;;15.41;76.33;100890.94;5109328;27;20134;-78
2022/10/22 00:53:27;;;;;;;0.10;0.10;;;;;;;15.43;76.19;100887.28;5090087;28;20032;-78
2022/10/22 00:55:54;;;;;;;0.10;0.10;;;;;;;15.48;76.44;100892.44;5090312;28;20020;-78
2022/10/22 00:58:23;;;;;;;0.10;0.10;;;;;;;15.53;76.21;100891.31;5093854;28;20028;-78
2022/10/22 01:00:49;;;;;;;0.10;0.10;;;;;;;15.55;76.38;100882.38;5085747;28;20032;-78
2022/10/22 01:03:16;;;;;;;0.10;0.10;;;;;;;15.60;76.28;100878.63;5090315;28;20028;-78
2022/10/22 01:06:02;;;;;;;0.20;0.20;;;;;;;15.69;76.14;100883.56;5091425;28;20056;-78
2022/10/22 01:14:12;;;;;;;0.15;0.15;;;;;;;15.78;75.57;100882.31;5158471;27;91854;-78
2022/10/22 01:17:03;;;;;;;0.10;0.10;;;;;;;15.81;75.39;100892.00;5129724;28;20035;-78
2022/10/22 01:19:58;;;;;;;0.85;0.75;;;;;;;15.78;75.58;100889.47;5130099;28;20030;-78
2022/10/22 01:30:52;;;;;;;0.10;0.10;;;;;;;15.74;75.17;100904.75;5106518;27;20212;-80
2022/10/22 01:33:21;;;;;;;0.95;0.95;;;;;;;15.72;75.35;100898.59;5086663;28;20110;-81
2022/10/22 01:35:47;;;;;;;0.10;0.10;;;;;;;15.69;75.21;100906.75;5087565;28;20040;-82
2022/10/22 01:38:17;;;;;;;0.10;0.10;;;;;;;15.69;75.65;100904.06;5086851;28;20058;-82
2022/10/22 01:40:46;;;;;;;0.03;0.03;;;;;;;15.64;75.30;100900.72;5084517;28;20032;-81
2022/10/22 01:43:12;;;;;;;0.10;0.10;;;;;;;15.64;75.24;100898.06;5085225;28;20111;-81
2022/10/22 01:45:47;;;;;;;0.10;0.10;;;;;;;15.64;75.15;100890.03;5080071;28;20028;-81
2022/10/22 01:48:39;;;;;;;0.05;0.05;;;;;;;15.63;75.22;100899.84;5085285;28;20061;-81
2022/10/22 01:51:30;;;;;;;0.10;0.10;;;;;;;15.57;75.13;100892.06;5081677;28;20029;-81
2022/10/22 01:54:22;;;;;;;0.10;0.10;;;;;;;15.52;75.12;100884.25;5074414;28;20033;-81
2022/10/22 02:02:38;;;;;;;0.10;0.10;;;;;;;15.41;75.37;100883.78;5161748;27;91782;-78
2022/10/22 02:05:16;;;;;;;0.10;0.10;;;;;;;15.42;75.18;100885.53;5136330;27;20038;-78
2022/10/22 02:07:54;;;;;;;0.10;0.10;;;;;;;15.43;75.04;100883.75;5119606;27;20034;-78
2022/10/22 02:10:22;;;;;;;0.20;0.20;;;;;;;15.35;75.40;100878.69;5124292;27;20027;-79
2022/10/22 02:12:52;;;;;;;0.75;0.75;;;;;;;15.35;75.06;100886.72;5120343;27;20031;-78
2022/10/22 02:15:20;;;;;;;0.10;0.10;;;;;;;15.33;75.42;100884.09;5133134;27;20024;-79
2022/10/22 02:17:48;;;;;;;0.10;0.10;;;;;;;15.33;75.31;100886.78;5116877;27;20066;-78
2022/10/22 02:20:22;;;;;;;0.10;0.10;;;;;;;15.34;75.44;100890.34;5113425;27;20044;-78
2022/10/22 02:22:48;;;;;;;0.10;0.10;;;;;;;15.31;75.45;100885.94;5126409;27;20029;-78
2022/10/22 02:25:15;;;;;;;0.10;0.10;;;;;;;15.30;75.24;100886.03;5126035;27;20069;-78
2022/10/22 02:27:50;;;;;;;0.10;0.10;;;;;;;15.27;75.42;100883.50;5131625;27;20024;-78
2022/10/22 02:30:20;;;;;;;0.50;0.47;;;;;;;15.27;75.44;100896.84;5120798;27;20027;-78
2022/10/22 02:35:51;;;;;;;0.10;0.10;;;;;;;15.25;75.59;100891.53;5093870;27;20139;-79
2022/10/22 02:38:18;;;;;;;0.10;0.10;;;;;;;15.28;75.33;100888.75;5049421;28;20029;-79
2022/10/22 02:40:45;;;;;;;0.10;0.10;;;;;;;15.28;75.56;100898.59;5050158;28;20029;-79
2022/10/22 02:43:11;;;;;;;0.10;0.10;;;;;;;15.31;75.57;100898.44;5052856;28;20605;-79
2022/10/22 02:45:37;;;;;;;0.10;0.10;;;;;;;15.34;75.46;100895.69;5054425;28;20026;-78
2022/10/22 02:48:04;;;;;;;0.10;0.10;;;;;;;15.41;75.45;100888.28;5053856;28;20021;-78
2022/10/22 02:50:30;;;;;;;0.10;0.10;;;;;;;15.43;75.34;100894.44;5051993;28;20511;-78
2022/10/22 02:52:56;;;;;;;0.20;0.20;;;;;;;15.43;75.85;100895.31;5053685;28;20486;-78
2022/10/22 02:55:22;;;;;;;0.10;0.10;;;;;;;15.47;75.85;100896.91;5054682;28;20104;-79
2022/10/22 02:57:48;;;;;;;0.10;0.10;;;;;;;15.52;75.53;100902.94;5049399;28;20030;-79
2022/10/22 03:00:15;;;;;;;0.10;0.10;;;;;;;15.51;75.61;100893.22;5047746;28;20446;-77
2022/10/22 03:02:41;;;;;;;7.10;3.00;;;;;;;15.51;75.75;100890.53;5046495;28;20030;-77
2022/10/22 03:05:07;;;;;;;0.10;0.10;;;;;;;15.52;75.32;100892.25;5049662;28;20022;-77
2022/10/22 03:07:34;;;;;;;0.10;0.10;;;;;;;15.51;75.76;100893.22;5047963;28;20044;-77
2022/10/22 03:10:00;;;;;;;0.10;0.10;;;;;;;15.52;75.62;100891.41;5047780;28;20025;-78
2022/10/22 03:12:26;;;;;;;0.00;0.00;;;;;;;15.51;75.50;100901.22;5050664;28;20051;-76
2022/10/22 03:14:52;;;;;;;0.10;0.10;;;;;;;15.49;75.18;100902.22;5047482;28;20017;-77
2022/10/22 03:17:18;;;;;;;0.10;0.10;;;;;;;15.48;75.10;100904.00;5039840;28;20475;-77
2022/10/22 03:19:44;;;;;;;0.10;0.10;;;;;;;15.48;75.02;100901.31;5050248;28;20036;-77
2022/10/22 03:22:22;;;;;;;0.10;0.10;;;;;;;15.49;75.06;100902.22;5049379;28;20036;-77
2022/10/22 03:24:53;;;;;;;0.10;0.10;;;;;;;15.46;75.32;100907.66;5048649;28;20017;-77
2022/10/22 03:27:20;;;;;;;0.20;0.20;;;;;;;15.43;75.27;100907.78;5045766;28;20059;-77
2022/10/22 03:29:49;;;;;;;0.10;0.10;;;;;;;15.44;75.29;100910.41;5048583;28;20086;-77
2022/10/22 03:32:16;;;;;;;0.10;0.10;;;;;;;15.45;75.12;100908.56;5047406;28;20025;-77
2022/10/22 03:34:42;;;;;;;0.00;0.00;;;;;;;15.45;75.17;100909.47;5050599;28;20033;-77
2022/10/22 03:37:08;;;;;;;0.03;0.03;;;;;;;15.46;75.40;100907.66;5049435;28;20113;-77
2022/10/22 03:39:35;;;;;;;0.10;0.10;;;;;;;15.49;75.24;100908.41;5049335;28;20037;-77
2022/10/22 03:42:02;;;;;;;0.10;0.10;;;;;;;15.51;75.39;100911.00;5049267;28;20056;-77
2022/10/22 03:44:29;;;;;;;0.10;0.10;;;;;;;15.53;75.22;100910.00;5048271;28;20077;-77
2022/10/22 03:46:55;;;;;;;0.25;0.25;;;;;;;15.57;75.43;100910.75;5037001;28;20025;-76
2022/10/22 03:49:21;;;;;;;0.10;0.10;;;;;;;15.58;75.43;100917.00;5034202;28;20030;-77
2022/10/22 03:51:47;;;;;;;0.10;0.10;;;;;;;15.61;75.58;100922.19;5037591;28;20030;-77
2022/10/22 03:54:15;;;;;;;0.20;0.20;;;;;;;15.63;75.39;100921.22;5032079;28;20025;-77
2022/10/22 03:56:41;;;;;;;0.10;0.10;;;;;;;15.65;75.36;100921.13;5028764;28;20561;-77
2022/10/22 03:59:07;;;;;;;0.10;0.10;;;;;;;15.67;75.62;100919.28;5026379;28;20038;-77
2022/10/22 04:01:33;;;;;;;0.10;0.10;;;;;;;15.68;75.53;100923.69;5030264;28;20052;-77
2022/10/22 04:04:00;;;;;;;0.20;0.20;;;;;;;15.69;75.53;100917.44;5034740;28;20021;-78
2022/10/22 04:06:28;;;;;;;0.10;0.10;;;;;;;15.70;75.46;100916.47;5027295;28;20034;-77
2022/10/22 04:08:54;;;;;;;0.10;0.10;;;;;;;15.72;75.28;100919.09;5034829;28;20036;-77
2022/10/22 04:11:20;;;;;;;0.10;0.10;;;;;;;15.72;75.45;100930.66;5031207;28;20049;-78
2022/10/22 04:13:46;;;;;;;0.20;0.20;;;;;;;15.74;75.30;100927.91;5034301;28;20025;-77
2022/10/22 04:16:15;;;;;;;0.10;0.10;;;;;;;15.77;75.27;100927.81;5028301;28;20040;-78
2022/10/22 04:18:42;;;;;;;0.10;0.10;;;;;;;15.80;75.38;100933.00;5031823;28;20056;-77
2022/10/22 04:21:10;;;;;;;1.85;1.20;;;;;;;15.81;75.01;100934.75;5034321;28;20125;-77
2022/10/22 04:23:36;;;;;;;0.10;0.10;;;;;;;15.81;75.27;100932.97;5034541;28;20025;-78
2022/10/22 04:26:06;;;;;;;0.10;0.10;;;;;;;15.81;75.04;100924.94;5036113;28;20040;-77
2022/10/22 04:28:35;;;;;;;0.10;0.10;;;;;;;15.80;74.71;100933.00;5030812;28;20042;-77
2022/10/22 04:31:11;;;;;;;0.10;0.10;;;;;;;15.81;74.82;100935.63;5033921;28;20160;-77
2022/10/22 04:33:37;;;;;;;0.10;0.10;;;;;;;15.78;74.96;100941.09;5033530;28;20488;-77
2022/10/22 04:36:10;;;;;;;0.10;0.10;;;;;;;15.81;74.98;100932.97;5034367;28;20091;-77
2022/10/22 04:38:36;;;;;;;0.10;0.10;;;;;;;15.76;74.66;100947.44;5033589;28;20101;-79
2022/10/22 04:41:10;;;;;;;0.10;0.10;;;;;;;15.79;74.81;100948.19;5035869;28;20037;-77
2022/10/22 04:43:36;;;;;;;0.15;0.15;;;;;;;15.73;75.02;100945.75;5033129;28;20032;-77
2022/10/22 04:46:02;;;;;;;0.20;0.20;;;;;;;15.73;74.88;100943.09;5033996;28;20018;-77
2022/10/22 04:48:28;;;;;;;0.00;0.00;;;;;;;15.72;74.91;100948.50;5032964;28;20484;-77
2022/10/22 04:50:57;;;;;;;0.10;0.10;;;;;;;15.73;74.65;100950.25;5034599;28;20060;-77
2022/10/22 04:53:23;;;;;;;0.10;0.10;;;;;;;15.71;74.81;100949.41;5033286;28;20083;-78
2022/10/22 04:55:49;;;;;;;0.10;0.10;;;;;;;15.69;74.96;100954.81;5022325;28;20025;-77
2022/10/22 04:58:15;;;;;;;0.08;0.08;;;;;;;15.70;74.71;100956.53;5031221;28;20451;-77
2022/10/22 05:00:41;;;;;;;0.10;0.10;;;;;;;15.70;74.93;100956.53;5033567;28;20033;-77
2022/10/22 05:03:07;;;;;;;0.10;0.10;;;;;;;15.71;74.55;100962.78;5032995;28;20053;-78
2022/10/22 05:05:33;;;;;;;0.10;0.10;;;;;;;15.67;74.86;100964.69;5035568;28;20033;-78
2022/10/22 05:07:59;;;;;;;0.10;0.10;;;;;;;15.60;74.71;100963.19;5034802;28;20029;-78
2022/10/22 05:10:25;;;;;;;0.10;0.10;;;;;;;15.60;74.80;100965.84;5027540;28;20036;-78
2022/10/22 05:12:51;;;;;;;0.40;0.40;;;;;;;15.56;74.48;100969.59;5028335;28;20128;-77
2022/10/22 05:15:17;;;;;;;0.30;0.30;;;;;;;15.52;74.80;100972.34;5030580;28;20029;-77
2022/10/22 05:17:43;;;;;;;0.08;0.08;;;;;;;15.49;74.54;100960.97;5035756;28;20176;-77
2022/10/22 05:20:10;;;;;;;4.82;0.77;;;;;;;15.45;74.94;100965.53;5032745;28;20030;-77
2022/10/22 05:22:36;;;;;;;0.10;0.10;;;;;;;15.44;75.19;100962.91;5036211;28;20366;-78
2022/10/22 05:25:02;;;;;;;0.50;0.50;;;;;;;15.45;75.11;100965.53;5031823;28;20056;-77
2022/10/22 05:27:28;;;;;;;0.00;0.00;;;;;;;15.46;75.05;100967.25;5032898;28;20040;-77
2022/10/22 05:29:54;;;;;;;0.10;0.10;;;;;;;15.42;75.01;100970.97;5032292;28;20036;-78
2022/10/22 05:32:20;;;;;;;0.10;0.10;;;;;;;15.39;75.28;100960.44;5028910;28;20088;-77
2022/10/22 05:34:46;;;;;;;0.35;0.35;;;;;;;15.41;75.18;100963.03;5031179;28;20043;-77
2022/10/22 05:37:12;;;;;;;0.28;0.28;;;;;;;15.39;74.90;100975.56;5026528;28;20040;-78
2022/10/22 05:39:39;;;;;;;0.10;0.10;;;;;;;15.33;74.80;100971.34;5032332;28;20025;-77
2022/10/22 05:42:05;;;;;;;0.10;0.10;;;;;;;15.34;75.09;100983.78;5032821;28;20048;-78
2022/10/22 05:44:31;;;;;;;0.10;0.10;;;;;;;15.29;75.00;100980.38;5029509;28;20497;-77
2022/10/22 05:46:57;;;;;;;2.45;1.75;;;;;;;15.29;74.91;100980.38;5025895;28;20459;-78
2022/10/22 05:49:23;;;;;;;0.10;0.10;;;;;;;15.24;75.01;100979.69;5030833;28;20045;-77
2022/10/22 05:51:49;;;;;;;0.20;0.20;;;;;;;15.23;75.15;100980.59;5033717;28;20090;-77
2022/10/22 05:54:18;;;;;;;0.10;0.10;;;;;;;15.24;75.01;100987.69;5029718;28;20037;-77
2022/10/22 05:56:45;;;;;;;0.10;0.10;;;;;;;15.18;74.89;100992.34;5020946;28;20040;-77
2022/10/22 05:59:11;;;;;;;0.10;0.10;;;;;;;15.17;74.91;100992.41;5031179;28;20499;-77
2022/10/22 06:01:39;;;;;;;0.10;0.10;;;;;;;15.18;74.98;101000.34;5033668;28;20033;-77
2022/10/22 06:04:08;;;;;;;0.10;0.10;;;;;;;15.22;74.86;100994.91;5032876;28;20108;-77
2022/10/22 06:06:39;;;;;;;0.17;0.17;;;;;;;15.22;75.15;101001.09;5033439;28;20039;-77
2022/10/22 06:09:15;;;;;;;0.10;0.10;;;;;;;15.27;75.23;101011.63;5033044;28;20516;-77
2022/10/22 06:11:42;;;;;;;0.10;0.10;;;;;;;15.25;75.33;101005.44;5030989;28;20101;-77
2022/10/22 06:14:09;;;;;;;0.82;0.82;;;;;;;15.25;75.16;101013.47;5024043;28;20036;-77
2022/10/22 06:16:35;;;;;;;1.10;0.63;;;;;;;15.27;75.23;101016.94;5024002;28;20061;-77
2022/10/22 06:19:02;;;;;;;1.17;1.17;;;;;;;15.27;75.12;101016.94;5031972;28;20029;-77
2022/10/22 06:21:30;;;;;;;0.10;0.10;;;;;;;15.28;75.08;101016.03;5030973;28;20033;-77
2022/10/22 06:23:57;;;;;;;0.10;0.10;;;;;;;15.27;74.81;101022.28;5031544;28;20485;-77
2022/10/22 06:26:24;;;;;;;0.20;0.20;;;;;;;15.30;75.15;101020.38;5032009;28;20038;-77
2022/10/22 06:28:50;;;;;;;0.13;0.13;;;;;;;15.33;74.96;101033.59;5031020;28;20034;-78
2022/10/22 06:31:16;;;;;;;0.10;0.10;;;;;;;15.39;75.16;101029.84;5031453;28;20086;-77
2022/10/22 06:33:42;;;;;;;0.10;0.10;;;;;;;15.43;74.92;101036.81;5032269;28;20048;-77
2022/10/22 06:36:12;;;;;;;0.10;0.10;;;;;;;15.49;75.14;101047.25;5034167;28;20087;-77
2022/10/22 06:38:38;;;;;;;0.10;0.10;;;;;;;15.52;75.05;101041.78;5032835;28;20025;-76
2022/10/22 06:41:07;;;;;;;0.13;0.13;;;;;;;15.60;74.87;101043.31;5033393;28;20045;-77
2022/10/22 06:43:34;;;;;;;0.00;0.00;;;;;;;15.63;74.99;101044.06;5032302;28;20029;-77
2022/10/22 06:46:03;;;;;;;0.22;0.22;;;;;;;15.69;74.85;101042.97;5031924;28;20552;-77
2022/10/22 06:48:29;;;;;;;0.10;0.10;;;;;;;15.68;74.79;101042.09;5031561;28;20040;-77
2022/10/22 06:50:55;;;;;;;0.10;0.10;;;;;;;15.69;75.03;101048.31;5024937;28;20382;-77
2022/10/22 06:53:21;;;;;;;0.40;0.40;;;;;;;15.67;74.85;101055.50;5033588;28;20052;-77
2022/10/22 06:55:47;;;;;;;0.10;0.10;;;;;;;15.77;74.99;101059.56;5019448;28;20033;-77
2022/10/22 06:58:13;;;;;;;0.10;0.10;;;;;;;15.79;74.93;101057.72;5031162;28;20045;-78
2022/10/22 07:00:39;;;;;;;2.63;0.43;;;;;;;15.87;75.17;101056.59;5031971;28;20041;-77
2022/10/22 07:03:05;;;;;;;0.10;0.10;;;;;;;15.89;74.92;101058.25;5032188;28;20025;-78
2022/10/22 07:05:33;;;;;;;0.10;0.10;;;;;;;16.01;74.71;101072.94;5033195;28;20089;-78
2022/10/22 07:07:59;;;;;;;0.28;0.28;;;;;;;16.09;74.66;101067.31;5032101;28;20457;-78
2022/10/22 07:10:25;;;;;;;0.45;0.45;;;;;;;16.09;74.61;101078.00;5029309;28;20025;-78
2022/10/22 07:12:51;;;;;;;0.10;0.10;;;;;;;16.18;74.05;101082.97;5029074;28;20054;-78
2022/10/22 07:15:17;;;;;;;0.10;0.10;;;;;;;16.21;73.95;101092.66;5025955;28;20116;-77
2022/10/22 07:17:44;;;;;;;2.97;1.20;;;;;;;16.31;73.81;101088.69;5035065;28;20107;-77
2022/10/22 07:20:11;;;;;;;0.60;0.60;;;;;;;16.37;73.36;101104.47;5034047;28;20025;-78
2022/10/22 07:22:37;;;;;;;2.55;0.73;;;;;;;16.44;73.66;101099.78;5036586;28;20029;-78
2022/10/22 07:25:04;;;;;;;0.10;0.10;;;;;;;16.48;72.89;101107.59;5038761;28;20033;-78
2022/10/22 07:27:30;;;;;;;0.10;0.10;;;;;;;16.53;72.86;101109.22;5037188;28;20032;-78
2022/10/22 07:29:59;;;;;;;0.10;0.10;;;;;;;16.57;73.30;101109.03;5037736;28;20041;-78
2022/10/22 07:32:26;;;;;;;0.40;0.40;;;;;;;16.64;72.98;101112.34;5036775;28;20108;-78
2022/10/22 07:34:52;;;;;;;0.10;0.10;;;;;;;16.64;73.20;101120.38;5030497;28;20034;-78
2022/10/22 07:37:20;;;;;;;0.20;0.20;;;;;;;16.66;72.73;101118.50;5036993;28;20034;-78
2022/10/22 07:39:47;;;;;;;0.10;0.10;;;;;;;16.66;72.26;101116.69;5028833;28;20033;-78
2022/10/22 07:42:13;;;;;;;0.10;0.10;;;;;;;16.70;72.15;101132.59;5037140;28;20063;-77
2022/10/22 07:44:39;;;;;;;1.02;0.90;;;;;;;16.72;72.39;101136.09;5028591;28;20022;-77
2022/10/22 07:47:05;;;;;;;0.10;0.10;;;;;;;16.75;71.99;101136.84;5034842;28;20045;-77
2022/10/22 07:49:31;;;;;;;0.10;0.10;;;;;;;16.78;72.28;101128.66;5033874;28;20029;-77
2022/10/22 07:51:57;;;;;;;0.32;0.32;;;;;;;16.80;71.86;101142.88;5016664;28;20497;-78
2022/10/22 07:54:24;;;;;;;0.10;0.10;;;;;;;16.85;72.26;101148.03;5019744;28;20041;-77
2022/10/22 07:56:50;;;;;;;0.00;0.00;;;;;;;16.91;72.08;101146.91;5022334;28;20091;-77
2022/10/22 07:59:16;;;;;;;0.10;0.10;;;;;;;16.90;72.15;101145.19;5028278;28;20038;-78
2022/10/22 08:01:42;;;;;;;0.10;0.10;;;;;;;16.95;71.83;101148.56;5037476;28;20131;-77
2022/10/22 08:04:10;;;;;;;0.10;0.10;;;;;;;16.91;71.33;101160.28;5042100;28;20025;-77
2022/10/22 08:06:37;;;;;;;0.10;0.10;;;;;;;17.00;71.54;101161.72;5026818;28;20021;-77
2022/10/22 08:09:03;;;;;;;0.20;0.20;;;;;;;17.07;71.02;101169.47;5029298;28;20041;-77
2022/10/22 08:11:32;;;;;;;0.10;0.10;;;;;;;17.08;70.64;101170.31;5028632;28;20029;-77
2022/10/22 08:13:58;;;;;;;0.10;0.10;;;;;;;17.07;70.47;101163.22;5025410;28;20486;-77
2022/10/22 08:16:24;;;;;;;0.00;0.00;;;;;;;17.11;70.35;101179.09;5026912;28;20494;-77
2022/10/22 08:18:50;;;;;;;0.20;0.20;;;;;;;17.16;70.59;101183.38;5039757;28;20037;-77
2022/10/22 08:21:16;;;;;;;0.10;0.10;;;;;;;17.17;70.52;101180.66;5022623;28;20041;-77
2022/10/22 08:23:43;;;;;;;0.17;0.17;;;;;;;17.16;70.21;101184.25;5021691;28;20103;-77
2022/10/22 08:26:10;;;;;;;0.10;0.10;;;;;;;17.30;70.79;101183.69;5034745;28;20033;-77
2022/10/22 08:28:36;;;;;;;0.10;0.10;;;;;;;17.28;70.48;101188.22;5041167;28;20028;-76
2022/10/22 08:31:04;;;;;;;1.77;1.27;;;;;;;17.31;70.50;101182.75;5032818;28;20057;-76
2022/10/22 08:33:30;;;;;;;0.10;0.10;;;;;;;17.40;70.61;101194.88;5020152;28;20022;-77
2022/10/22 08:35:56;;;;;;;0.10;0.10;;;;;;;17.43;70.11;101192.94;5034841;28;20071;-77
2022/10/22 08:38:22;;;;;;;0.10;0.10;;;;;;;17.46;70.17;101200.81;5032000;28;20048;-77
2022/10/22 08:40:53;;;;;;;0.10;0.10;;;;;;;17.53;70.15;101203.22;5029260;28;20101;-76
2022/10/22 08:43:59;;;;;;;0.05;0.05;;;;;;;17.60;69.36;101210.06;5041559;28;20055;-77
2022/10/22 08:49:20;;;;;;;0.10;0.10;;;;;;;17.60;69.77;101216.28;5103487;27;20162;-77
2022/10/22 08:51:46;;;;;;;0.10;0.10;;;;;;;17.65;69.50;101223.28;5065982;28;20032;-77
2022/10/22 08:54:52;;;;;;;0.10;0.10;;;;;;;17.87;68.69;101212.44;5070714;28;20059;-76
2022/10/22 08:57:43;;;;;;;0.10;0.10;;;;;;;17.83;68.29;101222.47;5066619;28;20442;-77
2022/10/22 09:07:57;;;;;;;0.10;0.10;;;;;;;18.04;68.09;101225.13;5098014;27;20206;-78
2022/10/22 09:10:31;;;;;;;0.10;0.10;;;;;;;18.00;67.90;101245.84;5068778;28;20033;-79
2022/10/22 09:12:57;;;;;;;0.10;0.10;;;;;;;17.99;67.89;101233.38;5069612;28;20031;-76
2022/10/22 09:15:24;;;;;;;0.10;0.10;;;;;;;18.06;67.85;101244.72;5068271;28;20527;-76
2022/10/22 09:18:04;;;;;;;0.10;0.10;;;;;;;18.08;67.57;101243.72;5068508;28;20481;-77
2022/10/22 09:20:44;;;;;;;0.10;0.10;;;;;;;17.98;66.67;101250.44;5060422;28;20036;-77
2022/10/22 09:25:54;;;;;;;0.10;0.10;;;;;;;17.90;66.92;101258.75;5167671;27;83989;-78
2022/10/22 09:28:20;;;;;;;0.10;0.10;;;;;;;17.97;67.14;101261.19;5141793;27;20084;-77
2022/10/22 09:30:46;;;;;;;0.10;0.10;;;;;;;17.94;67.53;101267.56;5139882;27;20382;-78
2022/10/22 09:33:17;;;;;;;0.65;0.65;;;;;;;17.90;67.82;101260.59;5143380;27;20058;-77
2022/10/22 09:38:23;;;;;;;0.10;0.10;;;;;;;18.08;67.36;101270.53;5088931;27;20159;-78
2022/10/22 09:40:51;;;;;;;0.10;0.10;;;;;;;18.16;67.47;101272.84;5046446;28;20521;-78
2022/10/22 09:43:18;;;;;;;1.75;1.48;;;;;;;18.18;67.33;101273.66;5051691;28;20397;-78
2022/10/22 09:45:46;;;;;;;0.32;0.32;;;;;;;18.33;66.84;101280.16;5051345;28;20045;-78
2022/10/22 09:50:54;;;;;;;0.30;0.28;;;;;;;18.35;66.27;101285.44;5101533;27;20445;-78
2022/10/22 09:53:27;;;;;;;0.10;0.10;;;;;;;18.52;66.21;101279.31;5060464;28;20501;-77
2022/10/22 09:55:57;;;;;;;1.55;1.45;;;;;;;18.43;65.81;101284.16;5051684;28;20025;-77
2022/10/22 09:58:23;;;;;;;0.10;0.10;;;;;;;18.45;65.84;101285.88;5061235;28;20033;-78
2022/10/22 10:00:59;;;;;;;42.72;1.23;;;;;;;18.52;65.80;101300.78;5055126;28;20044;-78
2022/10/22 10:03:32;;;;;;;0.00;0.00;;;;;;;18.51;65.89;101289.16;5061401;28;20127;-78
2022/10/22 10:06:00;;;;;;;0.10;0.10;;;;;;;18.61;65.42;101300.31;5052187;28;20032;-76
2022/10/22 10:08:26;;;;;;;0.45;0.45;;;;;;;18.67;65.00;101300.03;5052266;28;20063;-77
2022/10/22 10:11:14;;;;;;;0.10;0.10;;;;;;;18.78;65.65;101291.50;5055325;28;20043;-77
2022/10/22 10:14:12;;;;;;;0.05;0.05;;;;;;;18.97;65.15;101296.03;5055336;28;20047;-78
2022/10/22 10:19:45;;;;;;;0.30;0.30;;;;;;;19.15;64.28;101307.66;5167063;27;89044;-78
2022/10/22 10:22:29;;;;;;;0.32;0.32;;;;;;;19.22;64.03;101323.41;5154110;27;20105;-78
2022/10/22 10:25:19;;;;;;;0.10;0.10;;;;;;;19.21;62.77;101335.09;5148736;27;20374;-78
2022/10/22 10:27:58;;;;;;;0.10;0.10;;;;;;;19.28;63.03;101321.38;5148904;27;20032;-77
2022/10/22 10:30:24;;;;;;;0.08;0.08;;;;;;;19.25;62.59;101327.75;5148501;27;20031;-77
2022/10/22 10:46:55;;;;;;;0.20;0.20;;;;;;;19.38;61.87;101349.53;5109461;27;20476;-76
2022/10/22 10:49:25;;;;;;;1.38;0.55;;;;;;;19.58;61.24;101348.56;5080228;28;20040;-78
2022/10/22 10:54:40;;;;;;;0.10;0.10;;;;;;;19.59;60.06;101358.38;5067336;27;20510;-79
2022/10/22 11:00:04;;;;;;;0.75;0.75;;;;;;;19.58;60.27;101348.56;5109555;27;20162;-78
2022/10/22 11:05:38;;;;;;;1.08;0.47;;;;;;;19.51;60.31;101349.78;5085556;27;20167;-78
2022/10/22 11:13:58;;;;;;;0.10;0.10;;;;;;;20.02;59.02;101361.56;5112259;27;20166;-78
2022/10/22 11:16:39;;;;;;;0.10;0.10;;;;;;;20.19;58.89;101359.84;5058263;28;20062;-79
2022/10/22 11:19:15;;;;;;;0.50;0.50;;;;;;;20.25;58.50;101359.53;5071182;28;20060;-79
2022/10/22 11:22:04;;;;;;;0.10;0.10;;;;;;;20.25;56.85;101356.84;5066000;28;20064;-78
2022/10/22 11:24:55;;;;;;;0.10;0.10;;;;;;;20.29;55.75;101353.03;5072040;28;20767;-78
2022/10/22 11:27:30;;;;;;;0.00;0.00;;;;;;;20.22;57.09;101367.75;5071269;28;20036;-78
2022/10/22 11:30:18;;;;;;;0.10;0.10;;;;;;;20.13;57.42;101363.72;5070088;28;20104;-78
2022/10/22 11:32:56;;;;;;;0.70;0.70;;;;;;;19.94;55.86;101369.19;5068575;28;20025;-78
2022/10/22 11:35:29;;;;;;;0.10;0.10;;;;;;;19.91;55.10;101365.78;5072122;28;20040;-78
2022/10/22 11:37:56;;;;;;;0.00;0.00;;;;;;;19.86;56.58;101387.50;5072287;28;20036;-78
2022/10/22 11:40:49;;;;;;;0.30;0.30;;;;;;;19.87;56.14;101386.56;5069091;28;20531;-78
2022/10/22 11:43:55;;;;;;;0.10;0.10;;;;;;;19.73;56.39;101385.41;5071818;28;20412;-79
2022/10/22 11:51:46;;;;;;;0.10;0.10;;;;;;;19.82;56.52;101383.22;5162870;27;87927;-78
2022/10/22 11:59:57;;;;;;;0.10;0.10;;;;;;;20.27;55.58;101383.66;5114872;27;20158;-78
2022/10/22 12:13:52;;;;;;;0.80;0.80;;;;;;;20.92;53.48;101381.13;5096166;27;20220;-78
2022/10/22 12:16:22;;;;;;;0.10;0.10;;;;;;;21.20;53.59;101376.88;5111469;28;20509;-78
2022/10/22 12:18:54;;;;;;;0.10;0.10;;;;;;;21.29;52.66;101384.41;5111406;28;20028;-78
2022/10/22 12:21:20;;;;;;;0.50;0.50;;;;;;;21.36;51.62;101375.97;5110081;28;20084;-78
2022/10/22 12:23:47;;;;;;;0.00;0.00;;;;;;;21.31;51.26;101382.50;5118082;28;20039;-78
2022/10/22 12:26:30;;;;;;;0.10;0.10;;;;;;;21.28;51.85;101377.31;5111475;28;20110;-78
2022/10/22 12:28:58;;;;;;;0.10;0.10;;;;;;;21.32;52.18;101380.69;5114366;28;20019;-77
2022/10/22 12:31:25;;;;;;;0.30;0.30;;;;;;;21.23;51.75;101383.91;5114236;28;20559;-78
2022/10/22 12:33:59;;;;;;;0.17;0.17;;;;;;;21.19;52.16;101385.91;5120025;27;20027;-77
2022/10/22 12:36:27;;;;;;;4.57;0.85;;;;;;;21.16;52.64;101384.25;5113579;28;20122;-77
2022/10/22 12:38:53;;;;;;;0.03;0.03;;;;;;;21.19;52.19;101393.97;5112427;28;20372;-78
2022/10/22 12:41:21;;;;;;;0.10;0.10;;;;;;;21.17;52.88;101377.03;5114756;27;20031;-77
2022/10/22 12:43:47;;;;;;;0.10;0.10;;;;;;;21.03;52.98;101379.63;5125842;27;20084;-78
2022/10/22 12:46:15;;;;;;;0.10;0.10;;;;;;;20.92;53.17;101394.56;5119943;28;20031;-77
2022/10/22 12:48:44;;;;;;;0.13;0.13;;;;;;;20.81;53.82;101387.06;5116641;27;20439;-78
2022/10/22 12:51:18;;;;;;;0.17;0.17;;;;;;;20.87;54.15;101385.00;5105328;28;20174;-78
2022/10/22 12:53:48;;;;;;;0.10;0.10;;;;;;;20.97;55.05;101383.53;5107871;28;20031;-78
2022/10/22 12:56:20;;;;;;;0.20;0.20;;;;;;;21.05;54.18;101383.97;5117489;28;20027;-78
2022/10/22 12:59:01;;;;;;;0.10;0.10;;;;;;;20.99;53.84;101379.78;5115639;27;20106;-78
2022/10/22 13:01:32;;;;;;;0.10;0.10;;;;;;;20.83;53.79;101377.06;5103257;28;20031;-78
2022/10/22 13:07:17;;;;;;;0.10;0.10;;;;;;;20.83;54.39;101381.59;5117967;27;20215;-77
2022/10/22 13:09:59;;;;;;;0.10;0.10;;;;;;;20.76;55.16;101372.09;5080548;28;20050;-78
2022/10/22 13:12:27;;;;;;;7.13;2.33;;;;;;;20.72;55.11;101376.78;5086249;28;20600;-78
2022/10/22 13:14:53;;;;;;;0.10;0.10;;;;;;;20.77;54.81;101381.94;5085430;28;20044;-78
2022/10/22 13:17:40;;;;;;;0.28;0.28;;;;;;;20.79;54.70;101388.97;5079839;28;20083;-79